Time;durP1;ratioP1;P1;durP2;ratioP2;P2;SDS_P1;SDS_P2;PMS_P1;PMS_P2;Temp;Humidity;BMP_temperature;BMP_pressure;BME280_temperature;BME280_humidity;BME280_pressure;Samples;Min_cycle;Max_cycle;Signal;HPM_P1;HPM_P2
2022/07/12 00:01:08;;;;;;;;;;;;;;;;;;5065206;28;19913;-80
2022/07/12 00:03:33;;;;;;;;;;;;;;;;;;5061130;28;20569;-79
2022/07/12 00:05:59;;;;;;;;;;;;;;;;;;5053124;28;20212;-80
2022/07/12 00:08:25;;;;;;;;;;;13.90;99.90;;;;;;5063949;28;19931;-79
2022/07/12 00:10:51;;;;;;;;;;;;;;;;;;5053157;28;19912;-79
2022/07/12 00:13:16;;;;;;;;;;;;;;;;;;5050958;28;20296;-78
2022/07/12 00:15:42;;;;;;;;;;;;;;;;;;5053431;28;19935;-78
2022/07/12 00:18:08;;;;;;;;;;;;;;;;;;5060324;28;19983;-78
2022/07/12 00:20:34;;;;;;;;;;;;;;;;;;5053122;28;20276;-78
2022/07/12 00:23:00;;;;;;;;;;;;;;;;;;5059788;28;20011;-79
2022/07/12 00:25:26;;;;;;;;;;;;;;;;;;5057719;28;19916;-79
2022/07/12 00:27:52;;;;;;;;;;;;;;;;;;5058399;28;19927;-78
2022/07/12 00:30:17;;;;;;;;;;;;;;;;;;5053927;28;19909;-78
2022/07/12 00:32:43;;;;;;;;;;;;;;;;;;5042005;28;20198;-79
2022/07/12 00:35:09;;;;;;;;;;;;;;;;;;5054333;28;19908;-79
2022/07/12 00:37:35;;;;;;;;;;;14.00;99.90;;;;;;5049070;28;19909;-79
2022/07/12 00:40:01;;;;;;;;;;;;;;;;;;5061777;28;19909;-78
2022/07/12 00:42:26;;;;;;;;;;;;;;;;;;5058057;28;19912;-79
2022/07/12 00:44:52;;;;;;;;;;;14.00;99.90;;;;;;5057216;28;20096;-79
2022/07/12 00:47:23;;;;;;;;;;;14.00;99.90;;;;;;5059114;28;20019;-78
2022/07/12 00:49:49;;;;;;;;;;;;;;;;;;5053968;28;20289;-79
2022/07/12 00:52:15;;;;;;;;;;;13.90;99.90;;;;;;5055644;28;19913;-80
2022/07/12 00:54:41;;;;;;;;;;;13.80;99.90;;;;;;5064414;28;19920;-78
2022/07/12 00:57:06;;;;;;;;;;;13.90;99.90;;;;;;5074943;28;19909;-78
2022/07/12 00:59:32;;;;;;;;;;;;;;;;;;5077506;28;19912;-78
2022/07/12 01:01:58;;;;;;;;;;;13.70;99.90;;;;;;5076276;28;19908;-78
2022/07/12 01:04:23;;;;;;;;;;;;;;;;;;5061059;28;20015;-79
2022/07/12 01:06:50;;;;;;;;;;;13.80;99.90;;;;;;5054968;28;19997;-79
2022/07/12 01:09:15;;;;;;;;;;;13.80;99.90;;;;;;5056887;28;19920;-79
2022/07/12 01:11:41;;;;;;;;;;;;;;;;;;5054612;28;20319;-78
2022/07/12 01:14:07;;;;;;;;;;;;;;;;;;5052283;28;19921;-79
2022/07/12 01:16:33;;;;;;;;;;;;;;;;;;5057512;28;19909;-78
2022/07/12 01:18:59;;;;;;;;;;;13.70;99.90;;;;;;5056936;28;19955;-79
2022/07/12 01:21:27;;;;;;;;;;;13.70;99.90;;;;;;5056858;28;20674;-79
2022/07/12 01:23:53;;;;;;;;;;;;;;;;;;5059534;28;19923;-80
2022/07/12 01:26:19;;;;;;;;;;;;;;;;;;5056575;28;19908;-79
2022/07/12 01:28:44;;;;;;;;;;;13.60;99.90;;;;;;5057125;28;20007;-79
2022/07/12 01:31:10;;;;;;;;;;;;;;;;;;5044022;28;20420;-79
2022/07/12 01:33:36;;;;;;;;;;;;;;;;;;5056306;28;19908;-78
2022/07/12 01:36:02;;;;;;;;;;;;;;;;;;5057559;28;19909;-79
2022/07/12 01:38:28;;;;;;;;;;;;;;;;;;5054529;28;20300;-79
2022/07/12 01:40:54;;;;;;;;;;;;;;;;;;5048495;28;19913;-79
2022/07/12 01:43:20;;;;;;;;;;;;;;;;;;5054672;28;19944;-79
2022/07/12 01:45:46;;;;;;;;;;;;;;;;;;5053282;28;19924;-78
2022/07/12 01:48:11;;;;;;;;;;;;;;;;;;5056609;28;19951;-79
2022/07/12 01:50:37;;;;;;;;;;;;;;;;;;5061413;28;20557;-78
2022/07/12 01:53:03;;;;;;;;;;;;;;;;;;5046042;28;19920;-80
2022/07/12 01:55:30;;;;;;;;;;;;;;;;;;5055076;28;19908;-79
2022/07/12 01:57:55;;;;;;;;;;;12.30;99.90;;;;;;5056559;28;19916;-80
2022/07/12 02:00:22;;;;;;;;;;;;;;;;;;5058230;28;19919;-80
2022/07/12 02:02:48;;;;;;;;;;;;;;;;;;5055646;28;19938;-79
2022/07/12 02:05:14;;;;;;;;;;;13.30;99.90;;;;;;5055605;28;20414;-78
2022/07/12 02:07:40;;;;;;;;;;;;;;;;;;5059668;28;19916;-79
2022/07/12 02:10:05;;;;;;;;;;;;;;;;;;5051301;28;19909;-78
2022/07/12 02:12:31;;;;;;;;;;;;;;;;;;5047240;28;19947;-79
2022/07/12 02:14:57;;;;;;;;;;;;;;;;;;5051821;28;20271;-79
2022/07/12 02:17:23;;;;;;;;;;;;;;;;;;5055668;28;19912;-78
2022/07/12 02:19:49;;;;;;;;;;;;;;;;;;5056324;28;19909;-78
2022/07/12 02:22:15;;;;;;;;;;;;;;;;;;5058654;28;20360;-79
2022/07/12 02:24:41;;;;;;;;;;;;;;;;;;5062533;28;19909;-79
2022/07/12 02:27:07;;;;;;;;;;;;;;;;;;5049471;28;20396;-78
2022/07/12 02:29:32;;;;;;;;;;;;;;;;;;5045749;28;19917;-78
2022/07/12 02:31:58;;;;;;;;;;;;;;;;;;5054678;28;19920;-78
2022/07/12 02:34:24;;;;;;;;;;;;;;;;;;5057881;28;20003;-78
2022/07/12 02:36:50;;;;;;;;;;;;;;;;;;5051213;28;19931;-78
2022/07/12 02:39:16;;;;;;;;;;;;;;;;;;5051751;28;19916;-78
2022/07/12 02:41:42;;;;;;;;;;;;;;;;;;5049105;28;19960;-78
2022/07/12 02:44:08;;;;;;;;;;;;;;;;;;5061851;28;19997;-78
2022/07/12 02:46:35;;;;;;;;;;;;;;;;;;5061048;28;19924;-78
2022/07/12 02:49:01;;;;;;;;;;;;;;;;;;5048871;28;20011;-78
2022/07/12 02:51:26;;;;;;;;;;;;;;;;;;5057077;28;20044;-80
2022/07/12 02:53:52;;;;;;;;;;;;;;;;;;5057658;28;20091;-78
2022/07/12 02:56:18;;;;;;;;;;;;;;;;;;5051492;28;19980;-78
2022/07/12 02:58:44;;;;;;;;;;;;;;;;;;5057448;28;19912;-78
2022/07/12 03:01:11;;;;;;;;;;;12.00;99.90;;;;;;5055962;28;20050;-78
2022/07/12 03:03:36;;;;;;;;;;;;;;;;;;5052821;28;19908;-79
2022/07/12 03:06:02;;;;;;;;;;;;;;;;;;5053960;28;19908;-79
2022/07/12 03:08:28;;;;;;;;;;;;;;;;;;5064544;28;20403;-78
2022/07/12 03:10:54;;;;;;;;;;;;;;;;;;5049762;28;19912;-78
2022/07/12 03:13:20;;;;;;;;;;;;;;;;;;5054305;28;19909;-79
2022/07/12 03:15:46;;;;;;;;;;;;;;;;;;5051468;28;20462;-78
2022/07/12 03:18:12;;;;;;;;;;;;;;;;;;5051846;28;19970;-79
2022/07/12 03:20:38;;;;;;;;;;;;;;;;;;5050779;28;20000;-79
2022/07/12 03:23:03;;;;;;;;;;;;;;;;;;5057557;28;19919;-78
2022/07/12 03:25:29;;;;;;;;;;;;;;;;;;5054340;28;20635;-78
2022/07/12 03:27:55;;;;;;;;;;;;;;;;;;5050019;28;19921;-78
2022/07/12 03:30:21;;;;;;;;;;;;;;;;;;5047304;28;19913;-79
2022/07/12 03:32:47;;;;;;;;;;;;;;;;;;5054629;28;20390;-79
2022/07/12 03:35:13;;;;;;;;;;;;;;;;;;5054943;28;19999;-78
2022/07/12 03:37:39;;;;;;;;;;;;;;;;;;5058765;28;19992;-79
2022/07/12 03:40:05;;;;;;;;;;;;;;;;;;5054384;28;20032;-77
2022/07/12 03:42:31;;;;;;;;;;;11.70;99.90;;;;;;5050063;28;19917;-78
2022/07/12 03:44:57;;;;;;;;;;;;;;;;;;5056036;28;19968;-79
2022/07/12 03:47:23;;;;;;;;;;;;;;;;;;5057963;28;19916;-78
2022/07/12 03:49:48;;;;;;;;;;;;;;;;;;5055695;28;19916;-78
2022/07/12 03:52:14;;;;;;;;;;;;;;;;;;5048175;28;19916;-78
2022/07/12 03:54:40;;;;;;;;;;;;;;;;;;5054848;28;20292;-77
2022/07/12 03:57:15;;;;;;;;;;;;;;;;;;5052661;28;19920;-78
2022/07/12 03:59:44;;;;;;;;;;;11.70;99.90;;;;;;5049857;28;19913;-78
2022/07/12 04:02:10;;;;;;;;;;;;;;;;;;5056333;28;19912;-78
2022/07/12 04:04:35;;;;;;;;;;;11.60;99.90;;;;;;5057408;28;19923;-78
2022/07/12 04:07:01;;;;;;;;;;;;;;;;;;5050140;28;19931;-78
2022/07/12 04:09:27;;;;;;;;;;;;;;;;;;5055913;28;20008;-78
2022/07/12 04:11:53;;;;;;;;;;;;;;;;;;5058291;28;20218;-79
2022/07/12 04:14:19;;;;;;;;;;;;;;;;;;5052220;28;19917;-78
2022/07/12 04:16:45;;;;;;;;;;;;;;;;;;5055469;28;20005;-79
2022/07/12 04:19:10;;;;;;;;;;;12.80;99.90;;;;;;5063464;28;20279;-78
2022/07/12 04:21:36;;;;;;;;;;;;;;;;;;5052332;28;20006;-78
2022/07/12 04:24:02;;;;;;;;;;;;;;;;;;5051933;28;19916;-79
2022/07/12 04:26:28;;;;;;;;;;;;;;;;;;5056894;28;19923;-79
2022/07/12 04:28:53;;;;;;;;;;;11.70;99.90;;;;;;5064175;28;20544;-79
2022/07/12 04:31:19;;;;;;;;;;;;;;;;;;5053841;28;19920;-79
2022/07/12 04:33:45;;;;;;;;;;;;;;;;;;5049786;28;20032;-78
2022/07/12 04:36:11;;;;;;;;;;;;;;;;;;5054630;28;19923;-78
2022/07/12 04:38:37;;;;;;;;;;;;;;;;;;5049438;28;19909;-78
2022/07/12 04:41:03;;;;;;;;;;;;;;;;;;5060672;28;19951;-78
2022/07/12 04:43:28;;;;;;;;;;;;;;;;;;5058076;28;19908;-78
2022/07/12 04:45:54;;;;;;;;;;;;;;;;;;5058818;28;19912;-78
2022/07/12 04:48:20;;;;;;;;;;;;;;;;;;5051779;28;20514;-78
2022/07/12 04:50:46;;;;;;;;;;;;;;;;;;5042299;28;19913;-78
2022/07/12 04:53:12;;;;;;;;;;;;;;;;;;5052080;28;19974;-78
2022/07/12 04:55:38;;;;;;;;;;;;;;;;;;5059208;28;19912;-78
2022/07/12 04:58:04;;;;;;;;;;;11.70;99.90;;;;;;5058799;28;19923;-77
2022/07/12 05:00:30;;;;;;;;;;;;;;;;;;5059453;28;19935;-78
2022/07/12 05:02:55;;;;;;;;;;;12.90;99.90;;;;;;5055842;28;20356;-78
2022/07/12 05:05:21;;;;;;;;;;;;;;;;;;5056567;28;20007;-78
2022/07/12 05:07:47;;;;;;;;;;;;;;;;;;5054245;28;20738;-78
2022/07/12 05:10:13;;;;;;;;;;;;;;;;;;5058862;28;19932;-78
2022/07/12 05:12:39;;;;;;;;;;;;;;;;;;5050591;28;19908;-78
2022/07/12 05:15:05;;;;;;;;;;;;;;;;;;5051783;28;19919;-78
2022/07/12 05:17:31;;;;;;;;;;;;;;;;;;5051943;28;19916;-77
2022/07/12 05:19:56;;;;;;;;;;;12.40;99.90;;;;;;5055807;28;20321;-78
2022/07/12 05:22:22;;;;;;;;;;;;;;;;;;5050605;28;19912;-77
2022/07/12 05:24:48;;;;;;;;;;;;;;;;;;5052106;28;20038;-77
2022/07/12 05:27:14;;;;;;;;;;;;;;;;;;5052762;28;19999;-77
2022/07/12 05:29:40;;;;;;;;;;;;;;;;;;5064949;28;19919;-77
2022/07/12 05:32:06;;;;;;;;;;;13.60;99.90;;;;;;5049920;28;19920;-78
2022/07/12 05:34:31;;;;;;;;;;;;;;;;;;5051091;28;20015;-77
2022/07/12 05:36:57;;;;;;;;;;;;;;;;;;5058255;28;19912;-79
2022/07/12 05:39:23;;;;;;;;;;;;;;;;;;5057269;28;19913;-78
2022/07/12 05:41:49;;;;;;;;;;;14.00;99.90;;;;;;5060644;28;19912;-78
2022/07/12 05:44:18;;;;;;;;;;;;;;;;;;5057414;28;20327;-79
2022/07/12 05:46:45;;;;;;;;;;;;;;;;;;5046635;28;19912;-78
2022/07/12 05:49:10;;;;;;;;;;;;;;;;;;5058129;28;20362;-79
2022/07/12 05:54:21;;;;;;;;;;;;;;;;;;5052853;28;19916;-79
2022/07/12 05:56:47;;;;;;;;;;;;;;;;;;5057537;28;19909;-79
2022/07/12 05:59:13;;;;;;;;;;;;;;;;;;5074243;28;19916;-78
2022/07/12 06:01:38;;;;;;;;;;;;;;;;;;5065050;28;20007;-78
2022/07/12 06:04:04;;;;;;;;;;;15.70;99.90;;;;;;5069575;28;19915;-78
2022/07/12 06:06:30;;;;;;;;;;;;;;;;;;5064551;28;19916;-79
2022/07/12 06:08:55;;;;;;;0.70;0.40;;;15.80;99.90;;;;;;5051825;28;19924;-79
2022/07/12 06:11:21;;;;;;;2.38;0.57;;;;;;;;;;5053729;28;20021;-78
2022/07/12 06:13:49;;;;;;;0.88;0.43;;;;;;;;;;5058871;28;20067;-79
2022/07/12 06:16:15;;;;;;;5.05;0.90;;;;;;;;;;5054487;28;20346;-78
2022/07/12 06:18:40;;;;;;;1.42;0.60;;;;;;;;;;5058985;28;20033;-80
2022/07/12 06:21:06;;;;;;;3.13;1.05;;;;;;;;;;5056704;28;20029;-79
2022/07/12 06:23:32;;;;;;;1.77;0.70;;;;;;;;;;5057051;28;20067;-78
2022/07/12 06:25:58;;;;;;;1.88;0.40;;;;;;;;;;5062408;28;20025;-79
2022/07/12 06:28:24;;;;;;;2.97;0.30;;;;;;;;;;5056853;28;20123;-79
2022/07/12 06:30:50;;;;;;;0.80;0.65;;;;;;;;;;5052027;28;20033;-79
2022/07/12 06:33:16;;;;;;;0.35;0.20;;;18.80;99.90;;;;;;5050851;28;20033;-79
2022/07/12 06:35:42;;;;;;;0.28;0.28;;;;;;;;;;5055405;28;20052;-79
2022/07/12 06:38:08;;;;;;;2.08;0.98;;;;;;;;;;5056983;28;20067;-80
2022/07/12 06:40:34;;;;;;;0.52;0.40;;;;;;;;;;5046862;28;20033;-79
2022/07/12 06:42:59;;;;;;;1.38;0.60;;;;;;;;;;5052033;28;20016;-78
2022/07/12 06:45:25;;;;;;;0.63;0.30;;;22.20;99.90;;;;;;5052504;28;20035;-79
2022/07/12 06:47:52;;;;;;;2.05;1.27;;;22.80;99.90;;;;;;5053719;28;20831;-80
2022/07/12 06:50:20;;;;;;;2.25;1.30;;;;;;;;;;5056589;28;20728;-79
2022/07/12 06:52:45;;;;;;;2.08;0.75;;;25.30;99.90;;;;;;5057038;28;20479;-80
2022/07/12 06:55:11;;;;;;;0.32;0.10;;;;;;;;;;5056668;28;20059;-80
2022/07/12 06:57:37;;;;;;;0.20;0.10;;;;;;;;;;5055880;28;20033;-79
2022/07/12 07:00:06;;;;;;;0.55;0.30;;;28.40;78.80;;;;;;5060845;28;20078;-81
2022/07/12 07:02:32;;;;;;;0.30;0.10;;;;;;;;;;5051091;28;20067;-81
2022/07/12 07:04:59;;;;;;;0.10;0.10;;;;;;;;;;5058211;28;20424;-80
2022/07/12 07:07:24;;;;;;;0.32;0.10;;;;;;;;;;5061145;28;20025;-80
2022/07/12 07:09:50;;;;;;;0.00;0.00;;;;;;;;;;5062042;28;20028;-80
2022/07/12 07:12:16;;;;;;;0.28;0.00;;;;;;;;;;5057642;28;20025;-81
2022/07/12 07:14:42;;;;;;;0.68;0.50;;;;;;;;;;5057183;28;20029;-80
2022/07/12 07:17:08;;;;;;;2.92;0.30;;;;;;;;;;5054275;28;20055;-81
2022/07/12 07:19:36;;;;;;;0.45;0.20;;;32.30;56.80;;;;;;5055000;28;20029;-81
2022/07/12 07:22:02;;;;;;;0.20;0.10;;;;;;;;;;5052095;28;20024;-79
2022/07/12 07:24:28;;;;;;;3.42;1.48;;;;;;;;;;5055136;28;20035;-81
2022/07/12 07:26:54;;;;;;;0.65;0.10;;;;;;;;;;5056798;28;20039;-80
2022/07/12 07:32:05;;;;;;;0.00;0.00;;;;;;;;;;5052175;28;20398;-81
2022/07/12 07:34:31;;;;;;;0.10;0.00;;;;;;;;;;5059473;28;20039;-79
2022/07/12 07:36:57;;;;;;;0.05;0.05;;;;;;;;;;5052576;28;20016;-80
2022/07/12 07:39:22;;;;;;;0.20;0.00;;;29.70;70.50;;;;;;5063131;28;20433;-81
2022/07/12 07:41:48;;;;;;;0.25;0.10;;;;;;;;;;5055738;28;20170;-79
2022/07/12 07:44:14;;;;;;;;;;;28.30;60.00;;;;;;5059812;28;20013;-79
2022/07/12 07:46:39;;;;;;;;;;;28.60;61.60;;;;;;5059664;28;19916;-80
2022/07/12 07:49:05;;;;;;;;;;;28.40;60.70;;;;;;5065492;28;19924;-80
2022/07/12 07:51:30;;;;;;;;;;;29.50;60.30;;;;;;5052652;28;19913;-80
2022/07/12 07:53:56;;;;;;;;;;;29.40;61.80;;;;;;5061904;28;19939;-79
2022/07/12 07:56:21;;;;;;;;;;;29.00;61.40;;;;;;5065289;28;19916;-79
2022/07/12 07:58:47;;;;;;;;;;;27.60;61.60;;;;;;5064134;28;19919;-80
2022/07/12 08:01:12;;;;;;;;;;;27.40;63.60;;;;;;5051271;28;19997;-80
2022/07/12 08:03:39;;;;;;;;;;;27.20;62.60;;;;;;5061951;28;20264;-78
2022/07/12 08:06:04;;;;;;;;;;;26.80;65.10;;;;;;5066666;28;19909;-80
2022/07/12 08:08:30;;;;;;;;;;;26.60;66.30;;;;;;5057588;28;19927;-80
2022/07/12 08:10:56;;;;;;;;;;;26.50;64.90;;;;;;5062475;28;20572;-79
2022/07/12 08:13:21;;;;;;;;;;;25.90;66.10;;;;;;5055374;28;19935;-79
2022/07/12 08:15:47;;;;;;;;;;;25.70;67.30;;;;;;5061831;28;19919;-80
2022/07/12 08:18:12;;;;;;;;;;;25.40;66.90;;;;;;5064288;28;19917;-80
2022/07/12 08:20:38;;;;;;;0.80;0.10;;;;;;;;;;5062043;28;19913;-79
2022/07/12 08:23:04;;;;;;;0.28;0.10;;;;;;;;;;5056921;28;20025;-79
2022/07/12 08:25:30;;;;;;;0.00;0.00;;;;;;;;;;5059814;28;20482;-79
2022/07/12 08:27:56;;;;;;;0.00;0.00;;;;;;;;;;5052411;28;20040;-80
2022/07/12 08:30:23;;;;;;;0.10;0.00;;;;;;;;;;5050154;28;20124;-79
2022/07/12 08:32:49;;;;;;;0.08;0.03;;;;;;;;;;5063748;28;20036;-79
2022/07/12 08:35:15;;;;;;;0.00;0.00;;;27.20;63.10;;;;;;5060197;28;20027;-81
2022/07/12 08:37:42;;;;;;;0.40;0.10;;;;;;;;;;5060425;28;20508;-79
2022/07/12 08:40:07;;;;;;;0.10;0.10;;;26.80;70.90;;;;;;5063503;28;20039;-80
2022/07/12 08:42:34;;;;;;;0.47;0.10;;;;;;;;;;5056276;28;20032;-80
2022/07/12 08:44:59;;;;;;;;;;;29.20;56.10;;;;;;5064131;28;20039;-80
2022/07/12 08:47:25;;;;;;;;;;;29.80;52.70;;;;;;5057750;28;19920;-80
2022/07/12 08:50:10;;;;;;;;;;;30.70;54.90;;;;;;5059982;28;19908;-79
2022/07/12 08:52:38;;;;;;;;;;;29.40;55.10;;;;;;5062973;28;19961;-80
2022/07/12 08:55:15;;;;;;;;;;;29.20;57.40;;;;;;5067790;28;20376;-80
2022/07/12 08:57:40;;;;;;;;;;;27.20;58.90;;;;;;5063862;28;19908;-80
2022/07/12 09:00:06;;;;;;;;;;;;;;;;;;5059110;28;19924;-80
2022/07/12 09:02:43;;;;;;;;;;;26.10;61.20;;;;;;5059523;28;20067;-80
2022/07/12 09:05:09;;;;;;;;;;;26.20;63.10;;;;;;5064618;28;19936;-80
2022/07/12 09:07:37;;;;;;;;;;;27.80;59.50;;;;;;5062852;28;19956;-79
2022/07/12 09:10:06;;;;;;;;;;;30.50;55.50;;;;;;5058191;28;19915;-80
2022/07/12 09:12:35;;;;;;;;;;;32.10;51.60;;;;;;5056391;28;19912;-82
2022/07/12 09:15:11;;;;;;;;;;;32.90;49.00;;;;;;5064255;28;19908;-81
2022/07/12 09:17:36;;;;;;;;;;;33.80;44.10;;;;;;5058793;28;19923;-80
2022/07/12 09:20:03;;;;;;;;;;;33.60;44.30;;;;;;5056177;28;19924;-80
2022/07/12 09:22:28;;;;;;;;;;;32.30;44.80;;;;;;5059264;28;19978;-81
2022/07/12 09:24:54;;;;;;;;;;;32.20;47.30;;;;;;5053298;28;20368;-81
2022/07/12 09:27:24;;;;;;;;;;;32.90;47.70;;;;;;5062697;28;19930;-81
2022/07/12 09:29:50;;;;;;;;;;;33.10;44.80;;;;;;5063047;28;19909;-81
2022/07/12 09:37:46;;;;;;;0.20;0.10;;;;;;;;;;5057537;28;20078;-81
2022/07/12 09:40:12;;;;;;;0.17;0.00;;;;;;;;;;5066074;28;20025;-80
2022/07/12 09:42:41;;;;;;;;;;;28.20;54.50;;;;;;5055884;28;20037;-81
2022/07/12 09:45:07;;;;;;;;;;;27.90;56.00;;;;;;5067515;28;19912;-81
2022/07/12 09:47:33;;;;;;;;;;;26.90;57.20;;;;;;5060707;28;19920;-81
2022/07/12 09:49:59;;;;;;;;;;;26.40;58.40;;;;;;5055257;28;20389;-81
2022/07/12 09:52:24;;;;;;;;;;;;;;;;;;5062404;28;19912;-80
2022/07/12 09:54:52;;;;;;;;;;;25.50;61.20;;;;;;5055026;28;19931;-80
2022/07/12 09:57:24;;;;;;;;;;;25.30;63.20;;;;;;5056294;28;19923;-81
2022/07/12 09:59:50;;;;;;;;;;;25.00;66.70;;;;;;5056383;28;19931;-81
2022/07/12 10:02:17;;;;;;;;;;;25.40;64.90;;;;;;5042197;28;19908;-80
2022/07/12 10:04:43;;;;;;;;;;;;;;;;;;5047768;28;20449;-80
2022/07/12 10:07:12;;;;;;;;;;;24.50;62.20;;;;;;5057979;28;19912;-80
2022/07/12 10:09:38;;;;;;;;;;;24.90;63.10;;;;;;5059670;28;20318;-80
2022/07/12 10:12:04;;;;;;;;;;;24.90;64.60;;;;;;5061890;28;19916;-80
2022/07/12 10:14:29;;;;;;;;;;;25.00;65.80;;;;;;5064791;28;20441;-81
2022/07/12 10:16:56;;;;;;;;;;;25.10;66.20;;;;;;5058698;28;19909;-81
2022/07/12 10:19:23;;;;;;;;;;;;;;;;;;5066992;28;19912;-81
2022/07/12 10:21:49;;;;;;;;;;;25.20;65.00;;;;;;5053091;28;20558;-80
2022/07/12 10:24:30;;;;;;;;;;;24.40;65.30;;;;;;5052567;28;19915;-80
2022/07/12 10:26:56;;;;;;;;;;;24.50;61.60;;;;;;5054673;28;20276;-81
2022/07/12 10:29:21;;;;;;;;;;;25.00;62.40;;;;;;5061428;28;19999;-80
2022/07/12 10:31:47;;;;;;;;;;;25.60;62.90;;;;;;5058342;28;19939;-79
2022/07/12 10:34:14;;;;;;;;;;;25.60;61.80;;;;;;5058593;28;19916;-80
2022/07/12 10:36:55;;;;;;;;;;;25.60;61.20;;;;;;5057215;28;19954;-81
2022/07/12 10:39:22;;;;;;;;;;;24.50;60.60;;;;;;5066540;28;20275;-80
2022/07/12 10:42:14;;;;;;;;;;;25.30;61.40;;;;;;5059976;28;19912;-80
2022/07/12 10:44:41;;;;;;;;;;;25.00;60.40;;;;;;5058940;28;19912;-78
2022/07/12 10:47:07;;;;;;;;;;;25.20;60.40;;;;;;5055359;28;20351;-80
2022/07/12 10:49:33;;;;;;;;;;;;;;;;;;5064181;28;19981;-79
2022/07/12 10:52:11;;;;;;;;;;;25.20;60.70;;;;;;5070658;28;19916;-79
2022/07/12 10:54:37;;;;;;;;;;;24.30;60.10;;;;;;5076708;28;19928;-78
2022/07/12 10:57:03;;;;;;;;;;;25.30;59.20;;;;;;5078107;28;19968;-79
2022/07/12 10:59:29;;;;;;;;;;;25.40;61.70;;;;;;5058841;28;19971;-80
2022/07/12 11:01:55;;;;;;;;;;;25.40;61.00;;;;;;5052985;28;19924;-81
2022/07/12 11:04:21;;;;;;;;;;;25.40;58.10;;;;;;5056003;28;19913;-80
2022/07/12 11:06:47;;;;;;;;;;;25.40;58.90;;;;;;5059738;28;20018;-80
2022/07/12 11:09:12;;;;;;;;;;;25.50;59.60;;;;;;5055880;28;20857;-80
2022/07/12 11:11:48;;;;;;;;;;;25.60;58.60;;;;;;5053889;28;19908;-81
2022/07/12 11:14:14;;;;;;;;;;;;;;;;;;5059506;28;20074;-80
2022/07/12 11:16:44;;;;;;;;;;;25.70;59.70;;;;;;5056752;28;19908;-80
2022/07/12 11:19:09;;;;;;;;;;;25.60;58.10;;;;;;5057662;28;20312;-80
2022/07/12 11:21:35;;;;;;;;;;;25.70;57.60;;;;;;5062635;28;19976;-81
2022/07/12 11:24:01;;;;;;;;;;;25.70;58.60;;;;;;5059061;28;19912;-80
2022/07/12 11:26:26;;;;;;;;;;;25.50;58.70;;;;;;5060464;28;20390;-81
2022/07/12 11:28:56;;;;;;;;;;;25.50;59.00;;;;;;5068217;28;19921;-81
2022/07/12 11:31:22;;;;;;;;;;;25.60;59.60;;;;;;5066326;28;19919;-81
2022/07/12 11:33:48;;;;;;;;;;;25.80;58.80;;;;;;5062341;28;19908;-81
2022/07/12 11:36:14;;;;;;;;;;;25.80;59.90;;;;;;5060440;28;19913;-81
2022/07/12 11:38:40;;;;;;;;;;;25.80;58.30;;;;;;5056466;28;19939;-80
2022/07/12 11:41:07;;;;;;;;;;;25.90;58.30;;;;;;5049724;28;20069;-80
2022/07/12 11:43:33;;;;;;;;;;;25.70;59.60;;;;;;5045806;28;21245;-81
2022/07/12 11:45:59;;;;;;;;;;;25.90;59.80;;;;;;5058314;28;20015;-79
2022/07/12 11:48:24;;;;;;;;;;;25.90;60.60;;;;;;5050926;28;20468;-80
2022/07/12 11:50:50;;;;;;;;;;;25.90;59.10;;;;;;5060421;28;19908;-82
2022/07/12 11:53:17;;;;;;;;;;;25.60;57.90;;;;;;5055671;28;19959;-80
2022/07/12 11:55:53;;;;;;;;;;;25.90;57.40;;;;;;5059621;28;20394;-80
2022/07/12 11:58:19;;;;;;;;;;;26.00;57.30;;;;;;5062257;28;19924;-80
2022/07/12 12:00:45;;;;;;;;;;;25.80;57.00;;;;;;5056227;28;20427;-81
2022/07/12 12:03:11;;;;;;;;;;;25.90;56.80;;;;;;5058122;28;19954;-79
2022/07/12 12:05:37;;;;;;;;;;;26.00;57.90;;;;;;5062367;28;19913;-80
2022/07/12 12:08:03;;;;;;;;;;;25.90;59.00;;;;;;5060355;28;19991;-81
2022/07/12 12:10:29;;;;;;;;;;;25.90;58.80;;;;;;5055503;28;19924;-79
2022/07/12 12:12:56;;;;;;;;;;;25.90;58.10;;;;;;5067247;28;19917;-80
2022/07/12 12:15:22;;;;;;;;;;;25.90;59.70;;;;;;5059685;28;19909;-79
2022/07/12 12:17:48;;;;;;;;;;;;;;;;;;5052273;28;19909;-80
2022/07/12 12:20:16;;;;;;;;;;;26.00;57.30;;;;;;5056289;28;20511;-80
2022/07/12 12:22:42;;;;;;;;;;;26.10;58.30;;;;;;5054143;28;20372;-81
2022/07/12 12:25:12;;;;;;;;;;;26.00;58.50;;;;;;5057407;28;20042;-80
2022/07/12 12:27:57;;;;;;;;;;;26.10;57.70;;;;;;5053509;28;19916;-80
2022/07/12 12:30:23;;;;;;;;;;;26.20;59.80;;;;;;5043542;28;19917;-79
2022/07/12 12:32:59;;;;;;;;;;;26.10;60.60;;;;;;5062216;28;19962;-79
2022/07/12 12:35:35;;;;;;;;;;;26.30;56.50;;;;;;5060908;28;20573;-77
2022/07/12 12:38:01;;;;;;;;;;;;;;;;;;5056071;28;19912;-81
2022/07/12 12:40:28;;;;;;;;;;;26.40;56.30;;;;;;5056230;28;19924;-80
2022/07/12 12:43:04;;;;;;;;;;;25.90;56.60;;;;;;5060595;28;19917;-79
2022/07/12 12:45:30;;;;;;;;;;;26.50;56.90;;;;;;5053843;28;20376;-77
2022/07/12 12:47:57;;;;;;;;;;;26.40;56.80;;;;;;5053077;28;20034;-80
2022/07/12 12:50:35;;;;;;;;;;;26.40;55.90;;;;;;5058827;28;19908;-81
2022/07/12 12:53:06;;;;;;;;;;;26.40;56.10;;;;;;5048536;28;20376;-80
2022/07/12 12:55:31;;;;;;;;;;;26.10;56.10;;;;;;5058924;28;19912;-81
2022/07/12 12:57:57;;;;;;;;;;;26.10;57.00;;;;;;5058818;28;19928;-81
2022/07/12 13:00:22;;;;;;;;;;;26.20;57.30;;;;;;5057350;28;19916;-79
2022/07/12 13:02:48;;;;;;;;;;;26.20;57.90;;;;;;5053892;28;19916;-78
2022/07/12 13:05:13;;;;;;;;;;;26.30;58.10;;;;;;5059556;28;19913;-80
2022/07/12 13:07:39;;;;;;;;;;;26.40;57.00;;;;;;5051618;28;19911;-80
2022/07/12 13:10:04;;;;;;;;;;;26.90;57.50;;;;;;5060024;28;19924;-81
2022/07/12 13:12:30;;;;;;;;;;;26.50;56.00;;;;;;5056354;28;20467;-79
2022/07/12 13:14:56;;;;;;;;;;;26.70;56.30;;;;;;5056295;28;19920;-79
2022/07/12 13:17:21;;;;;;;;;;;26.50;55.90;;;;;;5056411;28;19983;-80
2022/07/12 13:19:47;;;;;;;;;;;26.60;57.20;;;;;;5052968;28;19928;-79
2022/07/12 13:22:12;;;;;;;;;;;26.60;56.50;;;;;;5054410;28;19912;-80
2022/07/12 13:24:38;;;;;;;;;;;26.50;57.70;;;;;;5056394;28;19911;-79
2022/07/12 13:27:04;;;;;;;;;;;27.10;55.90;;;;;;5053475;28;19966;-79
2022/07/12 13:29:29;;;;;;;;;;;26.70;55.50;;;;;;5046610;28;20055;-80
2022/07/12 13:31:56;;;;;;;;;;;26.60;55.80;;;;;;5052660;28;20372;-79
2022/07/12 13:34:21;;;;;;;;;;;26.70;55.40;;;;;;5058116;28;19964;-78
2022/07/12 13:36:46;;;;;;;;;;;26.70;55.20;;;;;;5064477;28;20320;-79
2022/07/12 13:41:56;;;;;;;;;;;26.60;56.10;;;;;;5061952;28;19967;-80
2022/07/12 13:44:22;;;;;;;;;;;26.80;55.10;;;;;;5053301;28;19912;-80
2022/07/12 13:46:47;;;;;;;;;;;26.90;55.50;;;;;;5046829;28;19991;-79
2022/07/12 13:49:13;;;;;;;;;;;27.00;55.80;;;;;;5049845;28;19927;-79
2022/07/12 13:51:38;;;;;;;;;;;26.70;55.80;;;;;;5050537;28;19916;-79
2022/07/12 13:54:04;;;;;;;;;;;26.90;56.70;;;;;;5062572;28;19927;-78
2022/07/12 13:56:29;;;;;;;;;;;26.90;55.60;;;;;;5057106;28;19983;-78
2022/07/12 13:58:55;;;;;;;;;;;26.80;57.50;;;;;;5057002;28;20384;-79
2022/07/12 14:01:21;;;;;;;;;;;26.90;56.00;;;;;;5058472;28;19912;-79
2022/07/12 14:03:46;;;;;;;;;;;27.60;55.40;;;;;;5052357;28;20451;-78
2022/07/12 14:06:11;;;;;;;;;;;27.60;53.60;;;;;;5049188;28;19970;-79
2022/07/12 14:08:37;;;;;;;;;;;26.90;53.30;;;;;;5054774;28;19916;-78
2022/07/12 14:11:03;;;;;;;;;;;27.10;54.10;;;;;;5047537;28;19913;-78
2022/07/12 14:13:28;;;;;;;;;;;27.70;54.20;;;;;;5053741;28;19918;-79
2022/07/12 14:15:54;;;;;;;;;;;26.80;54.10;;;;;;5052860;28;19909;-79
2022/07/12 14:18:19;;;;;;;;;;;26.80;53.70;;;;;;5046867;28;20284;-78
2022/07/12 14:20:45;;;;;;;;;;;27.00;53.80;;;;;;5043403;28;19913;-79
2022/07/12 14:23:13;;;;;;;;;;;26.90;53.60;;;;;;5050101;28;19909;-79
2022/07/12 14:25:38;;;;;;;;;;;26.90;54.30;;;;;;5051639;28;20538;-80
2022/07/12 14:28:04;;;;;;;;;;;26.80;54.10;;;;;;5054477;28;19927;-79
2022/07/12 14:30:29;;;;;;;;;;;27.60;54.50;;;;;;5049094;28;19912;-81
2022/07/12 14:32:55;;;;;;;;;;;27.00;54.50;;;;;;5043704;28;19943;-80
2022/07/12 14:35:20;;;;;;;;;;;26.90;54.80;;;;;;5053489;28;19917;-79
2022/07/12 14:37:46;;;;;;;;;;;26.90;54.40;;;;;;5054080;28;19954;-78
2022/07/12 14:40:12;;;;;;;;;;;27.60;55.90;;;;;;5055700;28;20038;-78
2022/07/12 14:42:38;;;;;;;;;;;26.90;53.80;;;;;;5047678;28;20373;-78
2022/07/12 14:45:05;;;;;;;;;;;;;;;;;;5040878;28;20028;-78
2022/07/12 14:47:30;;;;;;;;;;;26.90;55.60;;;;;;5049081;28;20372;-78
2022/07/12 14:49:56;;;;;;;;;;;27.00;55.00;;;;;;5045459;28;19913;-79
2022/07/12 14:52:21;;;;;;;;;;;27.00;53.70;;;;;;5048595;28;19925;-78
2022/07/12 14:54:47;;;;;;;;;;;27.00;54.20;;;;;;5052599;28;19912;-79
2022/07/12 14:57:12;;;;;;;;;;;27.10;54.20;;;;;;5047869;28;20362;-78
2022/07/12 14:59:38;;;;;;;;;;;27.10;53.10;;;;;;5043117;28;19954;-80
2022/07/12 15:02:03;;;;;;;;;;;27.20;54.40;;;;;;5056888;28;19974;-79
2022/07/12 15:04:29;;;;;;;;;;;28.10;55.60;;;;;;5051983;28;20367;-80
2022/07/12 15:06:54;;;;;;;;;;;27.40;53.50;;;;;;5053206;28;20307;-78
2022/07/12 15:09:20;;;;;;;;;;;27.40;54.20;;;;;;5044202;28;19928;-79
2022/07/12 15:11:45;;;;;;;;;;;27.40;53.10;;;;;;5051638;28;19912;-79
2022/07/12 15:14:11;;;;;;;;;;;27.30;52.20;;;;;;5051302;28;19912;-79